Time;durP1;ratioP1;P1;durP2;ratioP2;P2;SDS_P1;SDS_P2;PMS_P1;PMS_P2;Temp;Humidity;BMP_temperature;BMP_pressure;BME280_temperature;BME280_humidity;BME280_pressure;Samples;Min_cycle;Max_cycle;Signal;HPM_P1;HPM_P2
2022/09/30 00:02:17;;;;;;;;;;;;;;;17.34;65.71;99006.06;4257443;33;20041;-81
2022/09/30 00:04:44;;;;;;;;;;;;;;;17.23;66.34;99008.94;4260574;33;20001;-81
2022/09/30 00:07:11;;;;;;;;;;;;;;;17.39;65.62;99001.59;4256834;33;20003;-81
2022/09/30 00:09:38;;;;;;;;;;;;;;;17.36;65.81;99004.28;4261332;33;19993;-81
2022/09/30 00:12:05;;;;;;;;;;;;;;;17.36;66.06;99006.91;4254909;33;19986;-81
2022/09/30 00:14:32;;;;;;;;;;;;;;;17.50;65.42;98996.94;4255114;33;20317;-81
2022/09/30 00:16:58;;;;;;;;;;;;;;;17.57;65.09;98988.00;4255467;33;19990;-82
2022/09/30 00:19:25;;;;;;;;;;;;;;;17.62;64.71;98991.38;4261917;33;19992;-81
2022/09/30 00:21:52;;;;;;;;;;;;;;;17.39;65.79;98993.75;4257241;33;19986;-81
2022/09/30 00:24:19;;;;;;;;;;;;;;;17.53;65.36;98996.84;4255106;33;19978;-82
2022/09/30 00:26:46;;;;;;;;;;;;;;;17.55;65.32;98995.06;4254805;33;19981;-81
2022/09/30 00:29:13;;;;;;;;;;;;;;;17.57;65.29;98990.62;4255005;33;20008;-81
2022/09/30 00:31:40;;;;;;;;;;;;;;;17.47;65.84;98994.37;4255174;33;20328;-81
2022/09/30 00:34:07;;;;;;;;;;;;;;;17.54;65.67;98988.09;4265467;33;20306;-82
2022/09/30 00:36:36;;;;;;;;;;;;;;;17.59;65.71;98981.00;4254879;33;19993;-82
2022/09/30 00:39:04;;;;;;;;;;;;;;;17.56;65.76;98986.31;4264988;33;20392;-82
2022/09/30 00:41:31;;;;;;;;;;;;;;;17.52;66.08;98979.44;4254847;33;20008;-81
2022/09/30 00:43:58;;;;;;;;;;;;;;;17.82;64.70;98976.94;4266439;33;20004;-81
2022/09/30 00:46:33;;;;;;;;;;;;;;;17.61;65.65;98973.97;4259335;33;20340;-81
2022/09/30 00:49:03;;;;;;;;;;;;;;;17.59;65.91;98975.75;4254399;33;20280;-81
2022/09/30 00:51:34;;;;;;;;;;;;;;;17.41;66.73;98971.84;4255049;33;19995;-81
2022/09/30 00:54:06;;;;;;;;;;;;;;;17.52;66.42;98970.72;4250727;33;19978;-82
2022/09/30 00:56:33;;;;;;;;;;;;;;;17.63;66.04;98966.91;4250786;33;19982;-82
2022/09/30 00:59:03;;;;;;;;;;;;;;;17.31;67.35;98966.91;4251218;33;19994;-81
2022/09/30 01:01:30;;;;;;;;;;;;;;;17.41;66.76;98965.75;4243866;33;19989;-81
2022/09/30 01:04:04;;;;;;;;;;;;;;;17.28;67.05;98970.44;4247260;33;19977;-82
2022/09/30 01:06:31;;;;;;;;;;;;;;;17.30;67.20;98968.66;4253026;33;20786;-81
2022/09/30 01:08:58;;;;;;;;;;;;;;;17.43;66.53;98969.22;4251993;33;19985;-81
2022/09/30 01:11:26;;;;;;;;;;;;;;;17.47;66.46;98975.22;4265226;33;20057;-82
2022/09/30 01:13:54;;;;;;;;;;;;;;;17.56;66.08;98974.97;4256333;33;20361;-82
2022/09/30 01:16:20;;;;;;;;;;;;;;;17.55;66.12;98963.66;4261133;33;19994;-81
2022/09/30 01:18:50;;;;;;;;;;;;;;;17.64;65.97;98975.62;4257840;33;19982;-81
2022/09/30 01:21:29;;;;;;;;;;;;;;;17.64;66.10;98989.59;4264204;33;19973;-82
2022/09/30 01:24:02;;;;;;;;;;;;;;;17.64;66.18;98979.13;4265153;33;19993;-81
2022/09/30 01:26:58;;;;;;;;;;;;;;;17.68;66.14;98979.91;4254450;33;20001;-82
2022/09/30 01:29:37;;;;;;;;;;;;;;;17.72;66.03;98959.72;4264391;33;19973;-82
2022/09/30 01:32:04;;;;;;;;;;;;;;;17.86;65.59;98957.59;4258313;33;20355;-82
2022/09/30 01:34:36;;;;;;;;;;;;;;;17.67;66.28;98965.91;4254594;33;19996;-82
2022/09/30 01:37:09;;;;;;;;;;;;;;;17.10;68.36;98987.47;4264818;33;19989;-81
2022/09/30 01:39:42;;;;;;;;;;;;;;;17.74;65.61;98973.63;4264871;33;19997;-81
2022/09/30 01:42:09;;;;;;;;;;;;;;;17.75;65.71;98975.34;4255075;33;19993;-81
2022/09/30 01:44:54;;;;;;;;;;;;;;;17.78;65.77;98980.53;4262154;33;19982;-82
2022/09/30 01:47:24;;;;;;;;;;;;;;;17.87;65.49;98975.06;4261505;33;19981;-81
2022/09/30 01:49:54;;;;;;;;;;;;;;;17.91;65.13;98960.97;4256773;33;20000;-81
2022/09/30 01:52:27;;;;;;;;;;;;;;;17.98;64.95;98951.19;4260262;33;20430;-81
2022/09/30 01:54:58;;;;;;;;;;;;;;;17.94;65.23;98942.56;4264891;33;20358;-81
2022/09/30 01:57:24;;;;;;;;;;;;;;;17.72;65.91;98941.41;4265188;33;19985;-81
2022/09/30 01:59:59;;;;;;;;;;;;;;;17.97;65.09;98945.09;4262534;33;20272;-80
2022/09/30 02:02:27;;;;;;;;;;;;;;;17.84;65.58;98943.72;4265128;33;20000;-81
2022/09/30 02:04:56;;;;;;;;;;;;;;;17.69;66.34;98941.50;4258557;33;19977;-81
2022/09/30 02:07:24;;;;;;;;;;;;;;;17.67;66.73;98942.37;4265753;33;20355;-81
2022/09/30 02:09:53;;;;;;;;;;;;;;;17.84;66.16;98943.72;4264399;33;19981;-81
2022/09/30 02:12:21;;;;;;;;;;;;;;;17.94;65.58;98939.94;4265068;33;20029;-81
2022/09/30 02:15:08;;;;;;;;;;;;;;;17.83;66.05;98931.50;4259045;33;19978;-81
2022/09/30 02:17:39;;;;;;;;;;;;;;;17.76;66.46;98940.41;4268495;33;19985;-81
2022/09/30 02:20:07;;;;;;;;;;;;;;;17.74;66.58;98936.97;4261086;33;19989;-81
2022/09/30 02:22:41;;;;;;;;;;;;;;;17.76;66.49;98945.66;4261012;33;20013;-81
2022/09/30 02:25:09;;;;;;;;;;;;;;;17.63;66.90;98966.91;4262362;33;19989;-82
2022/09/30 02:27:41;;;;;;;;;;;;;;;17.70;66.80;98972.00;4253812;33;19993;-82
2022/09/30 02:30:08;;;;;;;;;;;;;;;17.58;66.96;98967.94;4266077;33;20032;-82
2022/09/30 02:32:43;;;;;;;;;;;;;;;17.84;66.11;98969.91;4256645;33;19989;-82
2022/09/30 02:35:17;;;;;;;;;;;;;;;17.91;65.78;98960.97;4264772;33;19974;-81
2022/09/30 02:37:49;;;;;;;;;;;;;;;17.79;66.33;98950.84;4254276;33;20308;-82
2022/09/30 02:40:30;;;;;;;;;;;;;;;17.85;66.35;98941.03;4266600;33;20418;-81
2022/09/30 02:42:57;;;;;;;;;;;;;;;17.93;66.10;98904.16;4255705;33;19981;-81
2022/09/30 02:45:25;;;;;;;;;;;;;;;17.82;66.44;98914.09;4254038;33;20320;-80
2022/09/30 02:47:55;;;;;;;;;;;;;;;17.73;66.89;98914.31;4257743;33;20000;-81
2022/09/30 02:50:25;;;;;;;;;;;;;;;17.61;67.37;98926.84;4266846;33;20012;-82
2022/09/30 02:53:11;;;;;;;;;;;;;;;17.65;67.47;98928.47;4268591;33;19999;-84
2022/09/30 02:55:38;;;;;;;;;;;;;;;17.86;66.68;98918.34;4263518;33;20013;-82
2022/09/30 02:58:08;;;;;;;;;;;;;;;17.84;66.67;98912.31;4255651;33;19989;-82
2022/09/30 03:00:34;;;;;;;;;;;;;;;17.96;66.15;98911.94;4261835;33;19999;-82
2022/09/30 03:03:04;;;;;;;;;;;;;;;18.00;66.07;98908.34;4268393;33;20000;-81
2022/09/30 03:05:31;;;;;;;;;;;;;;;17.87;66.65;98907.84;4266846;33;19973;-82
2022/09/30 03:07:57;;;;;;;;;;;;;;;17.94;66.23;98898.03;4265097;33;19981;-81
2022/09/30 03:10:24;;;;;;;;;;;;;;;17.85;66.53;98903.53;4259922;33;20025;-82
2022/09/30 03:12:54;;;;;;;;;;;;;;;17.92;66.32;98905.06;4248190;33;19993;-82
2022/09/30 03:15:23;;;;;;;;;;;;;;;17.73;67.08;98898.63;4247935;33;19992;-81
2022/09/30 03:17:58;;;;;;;;;;;;;;;17.72;67.18;98894.28;4253530;33;20316;-82
2022/09/30 03:20:31;;;;;;;;;;;;;;;17.90;66.42;98901.66;4258773;33;20008;-82
2022/09/30 03:23:07;;;;;;;;;;;;;;;17.86;66.85;98900.00;4260674;33;154228;-82
2022/09/30 03:25:39;;;;;;;;;;;;;;;17.78;67.22;98907.25;4255041;33;20031;-81
2022/09/30 03:28:23;;;;;;;;;;;;;;;17.87;67.05;98922.69;4255105;33;20001;-82
2022/09/30 03:31:09;;;;;;;;;;;;;;;17.61;68.03;98931.22;4257295;33;20007;-81
2022/09/30 03:33:39;;;;;;;;;;;;;;;17.83;67.45;98936.75;4261595;33;19989;-82
2022/09/30 03:36:05;;;;;;;;;;;;;;;17.98;66.82;98931.09;4259671;33;20008;-81
2022/09/30 03:38:35;;;;;;;;;;;;;;;18.15;66.02;98932.34;4265723;33;19992;-81
2022/09/30 03:41:05;;;;;;;;;;;;;;;18.15;66.08;98922.72;4269923;33;20000;-82
2022/09/30 03:43:32;;;;;;;;;;;;;;;18.11;66.23;98927.19;4269464;33;20371;-82
2022/09/30 03:46:05;;;;;;;;;;;;;;;18.10;66.26;98924.66;4263595;33;19969;-82
2022/09/30 03:48:32;;;;;;;;;;;;;;;18.06;66.37;98928.22;4257299;33;19993;-82
2022/09/30 03:50:59;;;;;;;;;;;;;;;18.04;66.65;98928.28;4260751;33;20060;-81
2022/09/30 03:53:27;;;;;;;;;;;;;;;17.87;67.31;98917.47;4267729;33;20033;-81
2022/09/30 03:55:54;;;;;;;;;;;;;;;17.78;67.53;98921.19;4267848;33;19981;-82
2022/09/30 03:58:22;;;;;;;;;;;;;;;17.86;67.46;98928.81;4261477;33;19990;-82
2022/09/30 04:00:49;;;;;;;;;;;;;;;17.82;67.59;98924.56;4255269;33;19989;-81
2022/09/30 04:03:20;;;;;;;;;;;;;;;17.96;67.11;98922.41;4255388;33;20000;-81
2022/09/30 04:05:47;;;;;;;;;;;;;;;17.84;67.78;98936.72;4254869;33;19985;-82
2022/09/30 04:08:13;;;;;;;;;;;;;;;17.98;67.08;98925.00;4255317;33;20064;-82
2022/09/30 04:10:41;;;;;;;;;;;;;;;18.16;66.22;98931.47;4257293;33;20004;-82
2022/09/30 04:13:08;;;;;;;;;;;;;;;18.07;66.63;98930.81;4261056;33;20096;-83
2022/09/30 04:15:35;;;;;;;;;;;;;;;18.15;66.46;98927.97;4255394;33;19989;-82
2022/09/30 04:18:02;;;;;;;;;;;;;;;18.20;66.10;98927.84;4261671;33;20017;-82
2022/09/30 04:20:29;;;;;;;;;;;;;;;18.08;66.69;98926.44;4262231;33;20396;-81
2022/09/30 04:22:57;;;;;;;;;;;;;;;17.99;66.81;98927.56;4262474;33;20406;-82
2022/09/30 04:25:25;;;;;;;;;;;;;;;17.89;67.39;98939.19;4255422;33;19992;-82
2022/09/30 04:27:51;;;;;;;;;;;;;;;18.07;66.73;98935.22;4265594;33;20312;-83
2022/09/30 04:30:18;;;;;;;;;;;;;;;18.12;66.59;98931.56;4257163;33;19999;-82
2022/09/30 04:32:51;;;;;;;;;;;;;;;18.21;66.15;98932.19;4262687;33;19999;-82
2022/09/30 04:35:18;;;;;;;;;;;;;;;18.08;66.54;98943.00;4269306;33;20755;-82
2022/09/30 04:37:45;;;;;;;;;;;;;;;18.08;66.61;98943.00;4269129;33;19977;-79
2022/09/30 04:40:13;;;;;;;;;;;;;;;18.06;66.86;98955.31;4267808;33;20007;-84
2022/09/30 04:42:41;;;;;;;;;;;;;;;18.05;66.82;98964.03;4268083;33;19985;-82
2022/09/30 04:45:11;;;;;;;;;;;;;;;17.95;67.32;98967.81;4269049;33;19974;-84
2022/09/30 04:47:42;;;;;;;;;;;;;;;18.05;66.89;98969.28;4267883;33;19986;-84
2022/09/30 04:50:09;;;;;;;;;;;;;;;17.91;67.38;98976.69;4265148;33;20053;-84
2022/09/30 04:52:37;;;;;;;;;;;;;;;17.94;67.39;98975.75;4259129;33;20004;-85
2022/09/30 04:55:04;;;;;;;;;;;;;;;18.19;66.33;98986.34;4256001;33;19990;-86
2022/09/30 04:57:31;;;;;;;;;;;;;;;18.25;65.85;98975.72;4263277;33;20042;-85
2022/09/30 04:59:58;;;;;;;;;;;;;;;18.29;65.79;98982.59;4264489;33;20844;-85
2022/09/30 05:02:25;;;;;;;;;;;;;;;18.31;65.82;98978.16;4267843;33;20007;-83
2022/09/30 05:04:53;;;;;;;;;;;;;;;18.40;65.31;98974.41;4257874;33;20011;-84
2022/09/30 05:07:20;;;;;;;;;;;;;;;18.26;65.79;98982.69;4266423;33;19996;-84
2022/09/30 05:09:47;;;;;;;;;;;;;;;18.35;65.50;98970.19;4262432;33;20000;-84
2022/09/30 05:12:15;;;;;;;;;;;;;;;18.26;65.99;98980.06;4267152;33;19989;-85
2022/09/30 05:14:41;;;;;;;;;;;;;;;18.31;65.95;98975.53;4255301;33;20060;-84
2022/09/30 05:17:09;;;;;;;;;;;;;;;18.28;66.17;98983.47;4254701;33;20068;-82
2022/09/30 05:19:36;;;;;;;;;;;;;;;18.22;66.61;98988.91;4263850;33;19994;-83
2022/09/30 05:22:02;;;;;;;;;;;;;;;18.23;66.67;98982.78;4264081;33;19993;-83
2022/09/30 05:24:29;;;;;;;;;;;;;;;18.30;66.37;98973.81;4260102;33;19982;-83
2022/09/30 05:26:56;;;;;;;;;;;;;;;18.32;66.26;98983.38;4259454;33;19993;-86
2022/09/30 05:29:23;;;;;;;;;;;;;;;18.34;66.18;98991.16;4262550;33;20336;-85
2022/09/30 05:31:50;;;;;;;;;;;;;;;18.24;66.72;98994.97;4255053;33;19986;-85
2022/09/30 05:34:16;;;;;;;;;;;;;;;18.21;66.99;98995.03;4255892;33;20030;-85
2022/09/30 05:36:43;;;;;;;;;;;;;;;18.30;66.73;98994.78;4259804;33;20012;-86
2022/09/30 05:39:10;;;;;;;;;;;;;;;18.41;66.18;98997.97;4253325;33;20351;-86
2022/09/30 05:41:37;;;;;;;;;;;;;;;18.50;65.99;98991.56;4254108;33;20003;-84
2022/09/30 05:44:05;;;;;;;;;;;;;;;18.41;66.35;98997.09;4265212;33;20033;-87
2022/09/30 05:46:32;;;;;;;;;;;;;;;18.29;66.71;99000.94;4257728;33;20429;-85
2022/09/30 05:48:58;;;;;;;;;;;;;;;18.27;66.86;99005.34;4260899;33;20045;-86
2022/09/30 05:51:25;;;;;;;;;;;;;;;18.49;66.00;99001.19;4266231;33;19989;-87
2022/09/30 05:53:52;;;;;;;;;;;;;;;18.41;66.14;99003.22;4259629;33;19986;-86
2022/09/30 05:56:19;;;;;;;;;;;;;;;18.38;66.52;99003.28;4266265;33;19997;-87
2022/09/30 05:58:46;;;;;;;;;;;;;;;18.43;66.54;99006.62;4263748;33;20576;-87
2022/09/30 06:01:14;;;;;;;;;;;;;;;18.27;67.13;99006.22;4258776;33;20000;-87
2022/09/30 06:03:42;;;;;;;;;;;;;;;18.28;67.22;99002.72;4266036;33;19978;-88
2022/09/30 06:06:09;;;;;;;;;;;;;;;18.40;66.94;99000.63;4257185;33;19996;-87
2022/09/30 06:08:35;;;;;;;;;;;;;;;18.24;67.76;99015.91;4255912;33;19978;-88
2022/09/30 06:11:08;;;;;;;;;;;;;;;18.44;66.69;99008.34;4259642;33;19997;-88
2022/09/30 06:13:36;;;;;;;;;;;;;;;18.48;66.50;99015.22;4263549;33;20361;-85
2022/09/30 06:16:04;;;;;;;;;;;;;;;18.61;66.04;99009.63;4255186;33;20688;-89
2022/09/30 06:18:31;;;;;;;;;;;;;;;18.53;66.48;99013.31;4252352;33;20020;-86
2022/09/30 06:20:59;;;;;;;;;;;;;;;18.21;67.62;99006.38;4255114;33;20377;-86
2022/09/30 06:23:26;;;;;;;;;;;;;;;18.22;67.80;99017.72;4266292;33;20013;-86
2022/09/30 06:25:53;;;;;;;;;;;;;;;18.21;68.08;99021.25;4253166;33;19977;-86
2022/09/30 06:28:20;;;;;;;;;;;;;;;18.48;66.94;99020.47;4263874;33;19990;-87
2022/09/30 06:30:47;;;;;;;;;;;;;;;18.32;67.36;99029.66;4263665;33;19981;-87
2022/09/30 06:33:14;;;;;;;;;;;;;;;18.22;67.87;99030.81;4257853;33;19996;-86
2022/09/30 06:35:41;;;;;;;;;;;;;;;18.07;68.62;99045.22;4256569;33;19990;-86
2022/09/30 06:38:10;;;;;;;;;;;;;;;18.07;68.77;99040.81;4256751;33;20049;-86
2022/09/30 06:40:37;;;;;;;;;;;;;;;18.06;68.91;99044.34;4264874;33;20384;-86
2022/09/30 06:43:04;;;;;;;;;;;;;;;18.20;68.40;99045.72;4258239;33;20335;-84
2022/09/30 06:45:31;;;;;;;;;;;;;;;18.36;67.61;99036.53;4265006;33;19993;-85
2022/09/30 06:47:59;;;;;;;;;;;;;;;18.37;67.32;99044.34;4266770;33;20033;-86
2022/09/30 06:50:28;;;;;;;;;;;;;;;18.32;67.87;99050.63;4259725;33;20729;-88
2022/09/30 06:53:28;;;;;;;;;;;;;;;18.36;67.84;99052.25;4261210;33;20096;-87
2022/09/30 06:55:55;;;;;;;;;;;;;;;18.45;67.63;99052.00;4263959;33;19985;-86
2022/09/30 06:58:25;;;;;;;;;;;;;;;18.44;67.75;99063.41;4258097;33;19986;-85
2022/09/30 07:01:00;;;;;;;;;;;;;;;18.44;67.63;99071.25;4256607;33;20457;-89
2022/09/30 07:03:30;;;;;;;;;;;;;;;18.66;66.64;99070.63;4154847;33;19989;-86
2022/09/30 07:05:58;;;;;;;;;;;;;;;18.62;66.69;99066.38;4250347;33;20056;-87
2022/09/30 07:08:27;;;;;;;;;;;;;;;18.50;67.10;99060.56;4258390;33;20042;-87
2022/09/30 07:10:55;;;;;;;;;;;;;;;18.57;67.26;99071.75;4262966;33;19996;-87
2022/09/30 07:13:21;;;;;;;;;;;;;;;18.72;66.71;99078.31;4252632;33;20363;-87
2022/09/30 07:15:51;;;;;;;;;;;;;;;18.63;67.12;99076.78;4265675;33;19989;-86
2022/09/30 07:18:19;;;;;;;;;;;;;;;18.55;67.57;99084.91;4243261;33;19995;-85
2022/09/30 07:20:49;;;;;;;;;;;;;;;18.55;67.80;99084.91;4230971;33;19990;-86
2022/09/30 07:23:16;;;;;;;;;;;;;;;18.62;67.38;99089.97;4236907;33;20038;-88
2022/09/30 07:25:50;;;;;;;;;;;;;;;18.62;67.55;99087.34;4226712;33;20009;-87
2022/09/30 07:28:17;;;;;;;;;;;;;;;18.54;67.96;99092.81;4229037;33;20008;-88
2022/09/30 07:30:44;;;;;;;;;;;;;;;18.44;68.58;99086.09;4224917;33;19986;-87
2022/09/30 07:33:15;;;;;;;;;;;;;;;18.63;68.01;99096.91;4226132;33;19978;-87
2022/09/30 07:35:55;;;;;;;;;;;;;;;18.54;68.38;99098.91;4232573;33;19994;-86
2022/09/30 07:38:24;;;;;;;;;;;;;;;18.81;67.24;99107.75;4235470;33;20104;-86
2022/09/30 07:40:57;;;;;;;;;;;;;;;18.88;66.99;99103.19;4245714;33;19997;-85
2022/09/30 07:43:24;;;;;;;;;;;;;;;18.72;67.43;99112.38;4229786;33;20312;-86
2022/09/30 07:45:51;;;;;;;;;;;;;;;18.56;67.34;99107.56;4238807;33;20018;-86
2022/09/30 07:51:25;;;;;;;;;;;;;;;18.68;67.28;99110.75;4199995;34;20362;-86
2022/09/30 07:53:53;;;;;;;;;;;;;;;18.70;67.14;99120.31;4200011;34;20395;-86
2022/09/30 07:56:20;;;;;;;;;;;;;;;18.67;67.44;99124.78;4218133;33;20328;-86
2022/09/30 07:58:48;;;;;;;;;;;;;;;18.74;67.27;99126.34;4236800;33;20465;-86
2022/09/30 08:01:15;;;;;;;;;;;;;;;18.72;67.63;99125.50;4234878;33;19990;-86
2022/09/30 08:03:46;;;;;;;;;;;;;;;18.53;68.17;99123.38;4234285;33;19978;-85
2022/09/30 08:06:13;;;;;;;;;;;;;;;18.32;68.80;99137.09;4232467;33;19990;-87
2022/09/30 08:08:41;;;;;;;;;;;;;;;18.57;67.54;99130.28;4225562;33;20009;-85
2022/09/30 08:11:08;;;;;;;;;;;;;;;18.28;68.81;99131.09;4226463;33;20049;-85
2022/09/30 08:13:34;;;;;;;;;;;;;;;18.46;68.12;99140.19;4232494;33;19978;-86
2022/09/30 08:16:01;;;;;;;;;;;;;;;18.71;67.25;99139.53;4227763;33;19986;-85
2022/09/30 08:18:28;;;;;;;;;;;;;;;18.65;67.73;99137.06;4231990;33;20348;-85
2022/09/30 08:20:55;;;;;;;;;;;;;;;18.46;68.78;99148.06;4228861;33;20010;-86
2022/09/30 08:23:22;;;;;;;;;;;;;;;18.50;68.39;99149.69;4240035;33;19978;-86
2022/09/30 08:25:49;;;;;;;;;;;;;;;18.11;70.30;99160.31;4230159;33;19982;-85
2022/09/30 08:28:17;;;;;;;;;;;;;;;18.54;68.39;99156.56;4226782;33;20336;-86
2022/09/30 08:30:43;;;;;;;;;;;;;;;18.52;68.65;99166.22;4226478;33;20004;-84
2022/09/30 08:33:10;;;;;;;;;;;;;;;18.51;68.48;99171.53;4226343;33;20651;-86
2022/09/30 08:35:37;;;;;;;;;;;;;;;18.32;69.57;99171.16;4232698;33;19993;-85
2022/09/30 08:38:04;;;;;;;;;;;;;;;18.00;70.47;99183.31;4239820;33;20042;-86
2022/09/30 08:40:32;;;;;;;;;;;;;;;17.67;72.42;99183.16;4240471;33;19990;-86
2022/09/30 08:43:01;;;;;;;;;;;;;;;18.03;70.99;99188.47;4235037;33;19982;-87
2022/09/30 08:45:34;;;;;;;;;;;;;;;17.57;72.61;99192.13;4229409;33;20000;-85
2022/09/30 08:48:07;;;;;;;;;;;;;;;17.55;73.15;99191.34;4234096;33;20320;-86
2022/09/30 08:50:39;;;;;;;;;;;;;;;17.57;73.26;99202.59;4235374;33;19974;-87
2022/09/30 08:53:10;;;;;;;;;;;;;;;17.19;74.42;99200.81;4240500;33;20016;-87
2022/09/30 08:55:38;;;;;;;;;;;;;;;17.01;75.59;99202.09;4238718;33;19989;-85
2022/09/30 08:58:06;;;;;;;;;;;;;;;17.06;75.72;99189.75;4239314;33;20344;-87
2022/09/30 09:00:32;;;;;;;;;;;;;;;17.51;74.02;99196.66;4240807;33;20339;-88
2022/09/30 09:02:59;;;;;;;;;;;;;;;17.19;75.36;99196.44;4231612;33;19982;-87
2022/09/30 09:05:32;;;;;;;;;;;;;;;17.71;74.10;99198.81;4240788;33;20344;-87
2022/09/30 09:08:02;;;;;;;;;;;;;;;17.73;74.26;99197.88;4233938;33;20300;-86
2022/09/30 09:10:33;;;;;;;;;;;;;;;18.12;72.89;99201.34;4231563;33;20783;-87
2022/09/30 09:12:59;;;;;;;;;;;;;;;18.05;73.41;99199.75;4226108;33;19998;-87
2022/09/30 09:15:32;;;;;;;;;;;;;;;17.54;74.71;99213.12;4218477;33;20040;-88
2022/09/30 09:18:02;;;;;;;;;;;;;;;17.88;73.56;99215.03;4224590;33;20481;-90
2022/09/30 09:20:53;;;;;;;;;;;;;;;18.23;71.81;99213.31;4214019;33;19982;-89
2022/09/30 09:23:20;;;;;;;;;;;;;;;18.15;72.25;99220.47;4226151;33;20291;-87
2022/09/30 09:25:51;;;;;;;;;;;;;;;17.86;73.18;99224.66;4237980;33;20748;-89
2022/09/30 09:28:32;;;;;;;;;;;;;;;17.54;74.99;99227.97;4229682;33;20027;-96
2022/09/30 09:31:00;;;;;;;;;;;;;;;17.42;76.02;99234.34;4226235;33;20433;-90
2022/09/30 09:33:28;;;;;;;;;;;;;;;17.58;75.71;99235.75;4235881;33;20061;-86
2022/09/30 09:36:07;;;;;;;;;;;;;;;17.88;74.54;99243.84;4234012;33;21003;-88
2022/09/30 09:38:38;;;;;;;;;;;;;;;17.97;74.46;99246.25;4240364;33;20347;-85
2022/09/30 09:41:11;;;;;;;;;;;;;;;17.95;74.28;99240.16;4239402;33;19996;-87
2022/09/30 09:43:50;;;;;;;;;;;;;;;18.00;73.59;99245.31;4232363;33;20003;-86
2022/09/30 09:46:25;;;;;;;;;;;;;;;17.72;74.33;99253.75;4227876;33;20033;-88
2022/09/30 09:49:11;;;;;;;;;;;;;;;17.69;74.80;99248.59;4233199;33;20042;-87
2022/09/30 09:51:39;;;;;;;;;;;;;;;17.76;74.67;99251.94;4233991;33;20366;-87
2022/09/30 09:54:07;;;;;;;;;;;;;;;17.94;74.69;99253.31;4225877;33;20704;-89
2022/09/30 09:56:36;;;;;;;;;;;;;;;17.93;74.70;99257.66;4236473;33;19990;-87
2022/09/30 09:59:04;;;;;;;;;;;;;;;18.15;74.11;99263.25;4225858;33;20041;-89
2022/09/30 10:01:41;;;;;;;;;;;;;;;18.47;72.45;99270.31;4225967;33;20524;-90
2022/09/30 10:04:16;;;;;;;;;;;;;;;18.13;73.20;99260.69;4225532;33;20024;-90
2022/09/30 10:06:58;;;;;;;;;;;;;;;17.62;75.66;99255.72;4227780;33;19978;-88
2022/09/30 10:09:35;;;;;;;;;;;;;;;17.93;74.63;99264.66;4232063;33;19982;-89
2022/09/30 10:12:05;;;;;;;;;;;;;;;18.22;73.47;99264.84;3805920;33;5010847;-90
2022/09/30 10:14:44;;;;;;;;;;;;;;;18.33;73.60;99259.34;4249174;33;20335;-88
2022/09/30 10:17:18;;;;;;;;;;;;;;;17.95;74.63;99253.25;4249619;33;20013;-90
2022/09/30 10:19:48;;;;;;;;;;;;;;;17.88;76.11;99259.53;4251431;33;20600;-88
2022/09/30 10:22:16;;;;;;;;;;;;;;;18.26;74.41;99276.13;4245058;33;20003;-88
2022/09/30 10:24:43;;;;;;;;;;;;;;;18.08;74.74;99273.00;4243071;33;19996;-91
2022/09/30 10:27:29;;;;;;;;;;;;;;;18.19;74.12;99271.91;4249499;33;19974;-90
2022/09/30 10:29:56;;;;;;;;;;;;;;;18.17;74.38;99281.56;4250066;33;19997;-90
2022/09/30 10:32:23;;;;;;;;;;;;;;;18.22;74.87;99284.91;4247459;33;19990;-93
2022/09/30 10:34:53;;;;;;;;;;;;;;;18.21;74.63;99293.69;4251986;33;20508;-88
2022/09/30 10:37:21;;;;;;;;;;;;;;;18.64;73.67;99288.25;4241513;33;20423;-88
2022/09/30 10:40:00;;;;;;;;;;;;;;;19.16;71.60;99281.62;4236766;33;20002;-88
2022/09/30 10:42:28;;;;;;;;;;;;;;;19.31;71.59;99284.75;4245826;33;19988;-90
2022/09/30 10:44:56;;;;;;;;;;;;;;;18.99;71.77;99297.84;4254095;33;20738;-89
2022/09/30 10:47:25;;;;;;;;;;;;;;;18.44;72.90;99307.13;4251283;33;20033;-91
2022/09/30 10:50:05;;;;;;;;;;;;;;;18.98;73.60;99303.97;4241949;33;20317;-87
2022/09/30 10:52:34;;;;;;;;;;;;;;;18.34;75.09;99302.97;4240044;33;19986;-87
2022/09/30 10:55:07;;;;;;;;;;;;;;;18.51;73.94;99306.06;4246897;33;19998;-88
2022/09/30 10:57:42;;;;;;;;;;;;;;;19.01;71.68;99303.91;4246821;33;20846;-87
2022/09/30 11:00:08;;;;;;;;;;;;;;;18.82;71.69;99318.41;4251367;33;19986;-87
2022/09/30 11:02:35;;;;;;;;;;;;;;;19.10;70.80;99313.28;4251449;33;19996;-86
2022/09/30 11:05:23;;;;;;;;;;;;;;;19.19;70.52;99322.69;4252552;33;20368;-88
2022/09/30 11:07:56;;;;;;;;;;;;;;;18.99;71.58;99337.19;4246629;33;19992;-88
2022/09/30 11:10:31;;;;;;;;;;;;;;;19.02;71.37;99342.38;4246905;33;19990;-87
2022/09/30 11:13:19;;;;;;;;;;;;;;;19.12;70.74;99352.63;4252647;33;20025;-88
2022/09/30 11:16:10;;;;;;;;;;;;;;;19.31;69.84;99359.09;4251064;33;20347;-89
2022/09/30 11:18:37;;;;;;;;;;;;;;;18.93;70.62;99368.84;4248885;33;19977;-87
2022/09/30 11:21:06;;;;;;;;;;;;;;;19.88;67.89;99376.75;4251116;33;20001;-89
2022/09/30 11:23:35;;;;;;;;;;;;;;;19.84;66.21;99385.63;4252406;33;19993;-88
2022/09/30 11:26:04;;;;;;;;;;;;;;;18.67;70.56;99387.81;4253406;33;20040;-88
2022/09/30 11:28:40;;;;;;;;;;;;;;;19.58;67.51;99393.34;4252573;33;20017;-87
2022/09/30 11:31:12;;;;;;;;;;;;;;;19.89;66.94;99399.47;4246859;33;20038;-88
2022/09/30 11:33:42;;;;;;;;;;;;;;;20.02;65.96;99404.38;4253118;33;20006;-88
2022/09/30 11:36:09;;;;;;;;;;;;;;;20.13;65.28;99408.44;4253273;33;19994;-89
2022/09/30 11:38:45;;;;;;;;;;;;;;;19.54;67.24;99415.34;4248099;33;19996;-86
2022/09/30 11:41:29;;;;;;;;;;;;;;;19.97;66.47;99408.03;4243520;33;19978;-86
2022/09/30 11:43:55;;;;;;;;;;;;;;;20.06;66.19;99416.53;4245943;33;20004;-84
2022/09/30 11:46:32;;;;;;;;;;;;;;;19.96;67.10;99421.19;4252655;33;20000;-84
2022/09/30 11:49:17;;;;;;;;;;;;;;;20.25;65.42;99417.69;4255701;33;20365;-82
2022/09/30 11:52:03;;;;;;;;;;;;;;;20.32;65.21;99421.84;4254224;33;20009;-83
2022/09/30 11:54:39;;;;;;;;;;;;;;;20.03;66.36;99432.38;4254453;33;20358;-82
2022/09/30 11:57:06;;;;;;;;;;;;;;;20.41;64.00;99439.97;4257762;33;20332;-83
2022/09/30 11:59:41;;;;;;;;;;;;;;;20.10;65.56;99441.78;4261900;33;19973;-83
2022/09/30 12:02:25;;;;;;;;;;;;;;;20.34;65.14;99443.69;4254946;33;20020;-82
2022/09/30 12:04:56;;;;;;;;;;;;;;;20.58;64.56;99443.88;4259033;33;20353;-83
2022/09/30 12:07:35;;;;;;;;;;;;;;;20.90;61.80;99449.00;4260334;33;20343;-83
2022/09/30 12:10:25;;;;;;;;;;;;;;;20.56;63.51;99448.34;4260179;33;20000;-83
2022/09/30 12:12:57;;;;;;;;;;;;;;;20.62;64.43;99448.16;4240664;33;20001;-80
2022/09/30 12:15:25;;;;;;;;;;;;;;;20.54;66.30;99465.94;4249120;33;20002;-82
2022/09/30 12:17:54;;;;;;;;;;;;;;;20.79;63.94;99466.87;4257983;33;20034;-83
2022/09/30 12:20:35;;;;;;;;;;;;;;;20.68;62.73;99469.00;4255835;33;19974;-83
2022/09/30 12:23:22;;;;;;;;;;;;;;;20.51;63.24;99468.63;4255944;33;19990;-84
2022/09/30 12:25:59;;;;;;;;;;;;;;;20.97;62.09;99469.84;4247871;33;19985;-83
2022/09/30 12:31:31;;;;;;;;;;;;;;;21.55;58.09;99473.19;4259441;33;19978;-84
2022/09/30 12:34:02;;;;;;;;;;;;;;;21.22;60.01;99481.28;4259085;33;20040;-83
2022/09/30 12:36:49;;;;;;;;;;;;;;;21.06;60.48;99480.09;4256725;33;20733;-83
2022/09/30 12:39:16;;;;;;;;;;;;;;;20.84;61.64;99478.13;4250535;33;19994;-84
2022/09/30 12:41:47;;;;;;;;;;;;;;;21.27;60.20;99484.63;4256100;33;20421;-83
2022/09/30 12:44:39;;;;;;;;;;;;;;;21.19;59.27;99477.91;4258745;33;20273;-83
2022/09/30 12:47:06;;;;;;;;;;;;;;;21.03;59.43;99480.19;4259313;33;20810;-84
2022/09/30 12:49:34;;;;;;;;;;;;;;;20.69;60.96;99486.50;4257251;33;20040;-82
2022/09/30 12:52:04;;;;;;;;;;;;;;;20.80;60.99;99497.53;4262897;33;19981;-83
2022/09/30 12:54:35;;;;;;;;;;;;;;;20.92;60.97;99493.66;4248963;33;19982;-85
2022/09/30 12:57:02;;;;;;;;;;;;;;;21.11;59.37;99499.19;4244612;33;20008;-83
2022/09/30 12:59:31;;;;;;;;;;;;;;;20.92;60.46;99516.50;4252618;33;19998;-83
2022/09/30 13:01:58;;;;;;;;;;;;;;;20.93;60.12;99515.56;4250801;33;19998;-82
2022/09/30 13:04:28;;;;;;;;;;;;;;;21.03;59.11;99522.28;4250856;33;20433;-83
2022/09/30 13:06:55;;;;;;;;;;;;;;;20.85;59.37;99519.31;4251450;33;20001;-83
2022/09/30 13:09:54;;;;;;;;;;;;;;;20.72;59.96;99525.88;4253345;33;19993;-82